Latest Weather Observations for Wudinna Airport

IDS60801

Issued at 7:02 am CST Sunday 26 April 2015 (issued every 30 minutes, with the page automatically refreshed every 10 minutes)

About weather observations | Map of weather stations | Latest weather observations for SA | Other Formats
Station Details ID: 018083 Name: WUDINNA AERO Lat: -33.04 Lon: 135.45 Height: 86.4 m
Data from the previous 72 hours. | See also: Recent months at Wudinna Airport
Date/Time
CST
Temp
°C
App
Temp
°C
Dew
Point
Rel
Hum
%
Delta-T
°C
Wind Press
QNH
hPa
Press
MSL
hPa
Rain
since 9 am
mm
Dir
 
Spd
km/h
Gust
km/h
Spd
kts
Gust
kts
26/07:00am 6.8 5.8 5.6 92 0.5 CALM 0 0 0 0 1025.7 - 0.4
26/06:30am 7.2 4.9 5.8 91 0.6 WSW 7 9 4 5 1025.5 - 0.4
26/06:00am 7.3 6.0 5.9 91 0.6 SW 2 7 1 4 1025.3 1025.2 0.4
26/05:30am 8.4 6.9 6.9 90 0.7 SSW 4 6 2 3 1025.0 - 0.4
26/05:00am 8.7 6.7 7.2 90 0.7 SW 7 9 4 5 1024.7 - 0.4
26/04:30am 8.5 6.5 7.1 91 0.7 SW 7 7 4 4 1024.6 - 0.4
26/04:00am 8.8 6.9 7.4 91 0.7 SW 7 9 4 5 1024.4 - 0.4
26/03:30am 8.8 8.2 7.3 90 0.7 CALM 0 0 0 0 1024.1 - 0.4
26/03:00am 9.9 9.4 8.0 88 0.9 CALM 0 6 0 3 1024.1 1023.9 0.4
26/02:30am 10.4 8.7 8.3 87 1.0 SW 7 9 4 5 1024.1 - 0.4
26/02:00am 11.2 9.5 8.4 83 1.4 S 7 9 4 5 1024.2 - 0.4
26/01:30am 12.2 9.9 8.9 80 1.7 SSW 11 11 6 6 1024.1 - 0.4
26/01:00am 12.9 11.2 9.9 82 1.5 SSW 9 11 5 6 1024.0 - 0.4
26/12:30am 12.9 11.2 9.9 82 1.5 S 9 11 5 6 1024.1 - 0.4
26/12:00am 13.1 11.0 9.9 81 1.6 S 11 15 6 8 1024.2 1024.0 0.4
 
Date/Time
CST
Temp
°C
App
Temp
°C
Dew
Point
Rel
Hum
%
Delta-T
°C
Wind Press
QNH
hPa
Press
MSL
hPa
Rain
since 9 am
mm
Dir
 
Spd
km/h
Gust
km/h
Spd
kts
Gust
kts
25/11:30pm 13.0 11.5 10.4 84 1.4 SSW 9 11 5 6 1024.2 - 0.4
25/11:00pm 13.2 11.7 10.4 83 1.5 SSW 9 13 5 7 1024.3 - 0.4
25/10:30pm 13.3 11.7 10.3 82 1.6 SSW 9 11 5 6 1024.4 - 0.4
25/10:00pm 13.4 11.4 10.2 81 1.7 SSW 11 13 6 7 1024.3 - 0.4
25/09:30pm 13.6 11.2 10.2 80 1.8 S 13 15 7 8 1023.9 - 0.4
25/09:00pm 13.7 10.9 10.1 79 1.9 S 15 19 8 10 1023.6 1023.4 0.4
25/08:30pm 13.8 10.6 10.0 78 2.0 S 17 20 9 11 1023.3 - 0.4
25/08:00pm 13.9 10.4 10.1 78 2.0 S 19 24 10 13 1022.9 - 0.4
25/07:30pm 14.1 10.6 10.1 77 2.1 S 19 24 10 13 1022.6 - 0.4
25/07:00pm 14.2 10.7 10.2 77 2.1 S 19 24 10 13 1022.3 - 0.4
25/06:30pm 14.6 10.9 10.0 74 2.4 SSW 20 24 11 13 1021.7 - 0.4
25/06:00pm 15.0 10.5 10.0 72 2.6 SSW 24 30 13 16 1021.3 1021.1 0.4
25/05:30pm 15.5 11.9 10.5 72 2.6 S 20 28 11 15 1020.9 - 0.4
25/05:00pm 15.7 9.7 10.2 70 2.9 S 32 39 17 21 1020.6 - 0.4
25/04:30pm 16.2 10.6 10.3 68 3.1 S 30 37 16 20 1020.3 - 0.4
25/04:00pm 16.6 10.6 10.0 65 3.5 S 32 39 17 21 1020.0 - 0.4
25/03:30pm 16.3 11.7 11.0 71 2.8 S 26 35 14 19 1019.6 - 0.4
25/03:00pm 16.8 10.9 10.4 66 3.4 S 32 41 17 22 1019.2 1019.1 0.4
25/02:30pm 15.9 12.3 13.0 83 1.6 S 24 39 13 21 1019.0 - 0.4
25/02:00pm 16.1 11.9 12.3 78 2.1 S 26 39 14 21 1019.0 - 0.4
25/01:39pm 15.0 7.9 12.1 83 1.6 S 41 48 22 26 1018.9 - 0.4
25/01:30pm 17.1 11.1 10.9 67 3.3 SSW 33 46 18 25 1018.7 - 0.4
25/01:00pm 16.3 10.8 12.3 77 2.2 S 33 48 18 26 1018.8 - 0.4
25/12:30pm 16.2 10.2 12.2 77 2.2 SSW 35 50 19 27 1018.7 - 0.4
25/12:00pm 16.4 10.4 12.0 75 2.4 S 35 57 19 31 1018.9 1018.8 0.2
25/11:30am 15.7 10.9 12.8 83 1.6 S 30 43 16 23 1018.9 - 0.2
25/11:00am 14.0 6.8 12.0 88 1.1 S 41 50 22 27 1018.8 - 0.0
25/10:57am 14.8 8.4 11.9 83 1.6 S 37 46 20 25 1018.8 - 0.0
25/10:30am 15.3 9.1 11.5 78 2.1 SSW 35 50 19 27 1018.5 - 0.0
25/10:20am 15.4 10.2 11.6 78 2.1 SSW 30 48 16 26 1018.4 - 0.0
25/10:00am 14.3 7.6 12.2 87 1.1 SSW 39 50 21 27 1018.3 - 0.0
25/09:30am 14.8 9.1 11.8 82 1.6 SSW 33 44 18 24 1018.0 - 0.0
25/09:00am 14.7 9.6 11.8 83 1.6 SW 30 37 16 20 1017.7 1017.6 2.0
25/08:30am 13.9 9.8 11.4 85 1.3 SW 24 30 13 16 1017.2 - 2.0
25/08:00am 12.8 9.2 10.7 87 1.1 SW 20 26 11 14 1016.8 - 2.0
25/07:30am 12.7 7.6 10.6 87 1.1 SW 28 33 15 18 1016.1 - 2.0
25/07:00am 12.6 7.9 10.5 87 1.1 SW 26 33 14 18 1015.8 - 2.0
25/06:30am 12.6 7.5 10.5 87 1.1 WSW 28 37 15 20 1015.3 - 2.0
25/06:00am 12.6 7.1 10.5 87 1.1 SW 30 39 16 21 1015.0 1014.8 2.0
25/05:30am 12.7 6.7 10.8 88 1.0 SW 33 44 18 24 1014.7 - 2.0
25/05:00am 12.7 7.3 10.8 88 1.0 SW 30 39 16 21 1014.1 - 2.0
25/04:30am 12.5 7.0 10.7 89 0.9 WSW 30 43 16 23 1013.7 - 2.0
25/04:00am 12.4 6.4 10.8 90 0.8 WSW 33 43 18 23 1013.5 - 2.0
25/03:30am 12.2 6.1 10.6 90 0.8 WSW 33 44 18 24 1013.3 - 1.8
25/03:00am 12.3 5.8 10.4 88 1.0 WSW 35 48 19 26 1013.1 1012.9 1.8
25/02:30am 12.3 6.2 10.4 88 1.0 WSW 33 44 18 24 1013.3 - 1.8
25/02:00am 12.2 4.8 9.9 86 1.2 WSW 39 50 21 27 1013.0 - 1.6
25/01:30am 12.2 4.8 9.9 86 1.2 WSW 39 50 21 27 1013.1 - 1.6
25/01:00am 12.2 5.1 9.6 84 1.3 WSW 37 50 20 27 1012.9 - 1.6
25/12:30am 11.9 4.5 9.8 87 1.1 WSW 39 50 21 27 1012.9 - 1.6
25/12:00am 11.8 4.7 9.7 87 1.1 WSW 37 54 20 29 1012.9 1012.7 1.6
 
Date/Time
CST
Temp
°C
App
Temp
°C
Dew
Point
Rel
Hum
%
Delta-T
°C
Wind Press
QNH
hPa
Press
MSL
hPa
Rain
since 9 am
mm
Dir
 
Spd
km/h
Gust
km/h
Spd
kts
Gust
kts
24/11:44pm 11.8 4.7 9.7 87 1.1 WSW 37 56 20 30 1012.8 - 1.6
24/11:30pm 11.9 5.7 10.0 88 1.0 WSW 33 46 18 25 1012.9 - 1.6
24/11:00pm 11.6 4.2 9.9 89 0.9 WSW 39 54 21 29 1012.9 - 1.6
24/10:52pm 11.7 5.1 10.1 90 0.8 WSW 35 54 19 29 1013.0 - 1.6
24/10:30pm 11.7 4.6 9.6 87 1.1 WSW 37 54 20 29 1013.0 - 1.4
24/10:00pm 12.1 5.9 9.5 84 1.3 WSW 32 43 17 23 1013.0 - 1.2
24/09:30pm 12.3 5.1 9.1 81 1.6 W 37 50 20 27 1012.8 - 1.0
24/09:00pm 11.5 5.5 8.5 82 1.5 W 30 37 16 20 1012.5 1012.3 1.0
24/08:30pm 11.3 3.9 8.5 83 1.4 W 37 44 20 24 1012.4 - 1.0
24/08:00pm 12.0 5.2 7.9 76 2.0 W 33 43 18 23 1012.6 - 1.0
24/07:30pm 12.4 4.8 7.5 72 2.4 W 37 48 20 26 1012.6 - 1.0
24/07:00pm 12.4 5.4 6.7 68 2.7 W 33 43 18 23 1012.4 - 1.0
24/06:30pm 12.0 5.4 7.9 76 2.0 W 32 39 17 21 1012.4 - 1.0
24/06:00pm 11.9 5.4 8.2 78 1.8 W 32 39 17 21 1012.4 1012.2 1.0
24/05:30pm 12.8 5.5 7.3 69 2.7 W 35 46 19 25 1012.4 - 1.0
24/05:00pm 13.0 6.2 7.7 70 2.6 W 33 46 18 25 1012.5 - 1.0
24/04:36pm 12.8 6.2 8.5 75 2.1 W 33 52 18 28 1012.4 - 1.0
24/04:30pm 12.5 6.3 9.3 81 1.6 W 32 43 17 23 1012.5 - 1.0
24/04:15pm 11.7 4.5 9.1 84 1.3 W 37 48 20 26 1012.7 - 1.0
24/04:02pm 11.7 3.2 8.6 81 1.5 SW 43 61 23 33 1012.5 - 0.8
24/04:00pm 11.9 2.8 8.6 80 1.6 SW 46 61 25 33 1012.4 - 0.8
24/03:55pm 14.4 7.7 7.5 63 3.4 WSW 32 50 17 27 1012.2 - 0.6
24/03:30pm 13.0 6.9 10.4 84 1.4 WSW 33 46 18 25 1012.4 - 0.6
24/03:19pm 13.6 6.8 7.8 68 2.9 WSW 33 63 18 34 1012.4 - 0.2
24/03:00pm 15.3 7.8 6.3 55 4.4 W 35 48 19 26 1012.2 1012.0 0.2
24/02:32pm 14.9 7.3 5.7 54 4.4 WSW 35 54 19 29 1012.3 - 0.2
24/02:30pm 15.0 7.8 6.0 55 4.3 WSW 33 44 18 24 1012.2 - 0.2
24/02:00pm 15.3 8.7 8.5 64 3.5 WSW 33 43 18 23 1012.5 - 0.2
24/01:30pm 14.8 7.1 7.1 60 3.8 WSW 37 54 20 29 1012.6 - 0.2
24/01:11pm 13.6 5.7 8.0 69 2.8 WSW 39 57 21 31 1012.7 - 0.2
24/01:00pm 14.2 7.6 7.7 65 3.2 WSW 32 44 17 24 1012.8 - 0.2
24/12:32pm 14.6 7.7 6.4 58 4.0 WSW 32 52 17 28 1013.1 - 0.0
24/12:30pm 15.1 9.1 7.2 59 3.9 WSW 28 41 15 22 1013.1 - 0.0
24/12:00pm 13.3 6.0 7.3 67 2.9 WSW 35 59 19 32 1013.4 1013.2 0.0
24/11:56am 14.1 8.2 7.6 65 3.2 WSW 28 50 15 27 1013.5 - 0.0
24/11:47am 13.1 6.5 8.6 74 2.3 W 33 52 18 28 1013.5 - 0.0
24/11:35am 15.0 6.8 6.6 57 4.1 SW 39 57 21 31 1013.2 - 0.0
24/11:30am 15.9 7.6 6.3 53 4.7 SW 39 48 21 26 1013.2 - 0.0
24/11:00am 14.5 5.9 6.6 59 3.8 SW 41 50 22 27 1013.4 - 0.0
24/10:30am 14.4 5.5 7.0 61 3.6 SW 43 50 23 27 1013.3 - 0.0
24/10:00am 14.5 8.5 8.5 67 3.0 WSW 30 39 16 21 1013.4 - 0.0
24/09:30am 14.0 9.2 10.4 79 1.9 WSW 26 33 14 18 1013.3 - 0.0
24/09:00am 12.6 7.6 10.8 89 0.9 WSW 28 35 15 19 1013.4 1013.2 2.0
24/08:33am 12.8 6.3 10.3 85 1.3 WSW 35 54 19 29 1012.9 - 2.0
24/08:30am 13.0 7.2 10.9 87 1.1 WSW 32 43 17 23 1012.9 - 2.0
24/08:00am 12.7 8.8 10.9 89 0.9 SW 22 30 12 16 1012.4 - 2.0
24/07:30am 12.6 7.3 11.3 92 0.7 SW 30 39 16 21 1012.0 - 2.0
24/07:00am 13.6 9.1 12.5 93 0.6 W 28 41 15 22 1011.5 - 0.8
24/06:30am 13.4 8.4 12.3 93 0.6 NW 30 35 16 19 1011.1 - 0.0
24/06:00am 13.2 8.9 12.1 93 0.6 NW 26 33 14 18 1011.3 1011.1 0.0
24/05:30am 13.1 9.2 12.0 93 0.6 NW 24 32 13 17 1011.3 - 0.0
24/05:00am 13.1 8.8 12.0 93 0.6 NW 26 35 14 19 1011.6 - 0.0
24/04:30am 12.7 9.3 11.3 91 0.7 NW 20 26 11 14 1011.6 - 0.0
24/04:00am 12.3 9.2 10.4 88 1.0 NW 17 20 9 11 1011.7 - 0.0
24/03:30am 12.5 9.8 10.4 87 1.1 NW 15 20 8 11 1011.9 - 0.0
24/03:00am 12.3 9.6 10.2 87 1.1 NW 15 17 8 9 1012.2 1012.0 0.0
24/02:30am 13.2 10.6 10.6 84 1.4 NW 15 17 8 9 1012.5 - 0.0
24/02:00am 13.4 11.0 10.2 81 1.7 NNW 13 19 7 10 1012.8 - 0.0
24/01:30am 13.3 10.6 10.5 83 1.5 NW 15 17 8 9 1013.3 - 0.0
24/01:00am 13.2 11.0 10.7 85 1.3 WNW 13 17 7 9 1013.7 - 0.0
24/12:30am 12.5 10.2 10.6 88 1.0 NW 13 17 7 9 1013.8 - 0.0
24/12:00am 12.5 9.8 10.2 86 1.2 WNW 15 17 8 9 1014.4 1014.2 0.0
 
Date/Time
CST
Temp
°C
App
Temp
°C
Dew
Point
Rel
Hum
%
Delta-T
°C
Wind Press
QNH
hPa
Press
MSL
hPa
Rain
since 9 am
mm
Dir
 
Spd
km/h
Gust
km/h
Spd
kts
Gust
kts
23/11:30pm 12.8 10.5 10.5 86 1.2 W 13 15 7 8 1014.7 - 0.0
23/11:00pm 12.7 10.4 10.4 86 1.2 WNW 13 15 7 8 1014.8 - 0.0
23/10:30pm 12.5 11.2 9.9 84 1.3 WNW 7 9 4 5 1015.2 - 0.0
23/10:00pm 13.3 11.7 10.1 81 1.7 WSW 9 13 5 7 1015.5 - 0.0
23/09:30pm 13.8 12.1 10.0 78 2.0 WSW 9 13 5 7 1015.8 - 0.0
23/09:00pm 14.2 12.5 10.0 76 2.2 WSW 9 11 5 6 1015.9 1015.8 0.0
23/08:30pm 14.5 12.9 10.1 75 2.3 WSW 9 11 5 6 1015.8 - 0.0
23/08:00pm 14.8 13.1 10.0 73 2.5 WSW 9 13 5 7 1015.9 - 0.0
23/07:30pm 15.1 12.8 10.3 73 2.5 WSW 13 15 7 8 1016.1 - 0.0
23/07:00pm 15.3 13.3 10.3 72 2.6 WSW 11 13 6 7 1015.9 - 0.0
23/06:30pm 15.6 13.3 10.4 71 2.8 WSW 13 15 7 8 1015.8 - 0.0
23/06:00pm 16.2 13.5 10.3 68 3.1 SW 15 19 8 10 1015.6 1015.5 0.0
23/05:30pm 16.9 13.9 9.3 61 4.0 SW 15 17 8 9 1015.6 - 0.0
23/05:00pm 17.3 14.0 9.7 61 4.0 SSW 17 20 9 11 1015.5 - 0.0
23/04:30pm 17.8 15.4 9.9 60 4.2 SSW 13 20 7 11 1015.5 - 0.0
23/04:00pm 17.7 15.6 9.6 59 4.3 SW 11 17 6 9 1015.7 - 0.0
23/03:30pm 17.8 15.2 9.4 58 4.4 SW 13 19 7 10 1015.9 - 0.0
23/03:00pm 17.9 15.4 9.8 59 4.3 SSW 13 17 7 9 1015.9 1015.8 0.0
23/02:30pm 17.5 15.5 10.1 62 3.9 SSW 11 17 6 9 1016.3 - 0.0
23/02:00pm 18.3 15.7 10.7 61 4.1 SSW 15 20 8 11 1016.8 - 0.0
23/01:30pm 17.1 15.5 10.2 64 3.7 SSW 9 17 5 9 1017.1 - 0.0
23/01:00pm 17.2 16.1 10.8 66 3.4 W 7 15 4 8 1017.6 - 0.0
23/12:30pm 16.5 15.6 10.6 68 3.2 SSW 6 7 3 4 1018.2 - 0.0
23/12:00pm 16.0 15.2 11.0 72 2.7 S 6 9 3 5 1018.7 1018.6 0.0
23/11:30am 15.0 14.1 10.8 76 2.2 S 6 7 3 4 1019.2 - 0.0
23/11:00am 14.3 14.2 10.9 80 1.8 SSW 2 6 1 3 1019.4 - 0.0
23/10:30am 13.9 13.4 10.9 82 1.6 WNW 4 9 2 5 1019.6 - 0.0
23/10:00am 13.4 12.6 10.9 85 1.3 NE 6 7 3 4 1019.6 - 0.0
23/09:30am 12.5 11.6 10.6 88 1.0 NE 6 9 3 5 1019.6 - 0.0
23/09:00am 11.6 11.0 10.3 92 0.7 NE 4 7 2 4 1019.5 1019.4 0.0
23/08:30am 10.8 10.4 9.7 93 0.6 SW 2 7 1 4 1020.0 - 0.0
23/08:00am 10.5 10.4 9.4 93 0.6 CALM 0 0 0 0 1020.1 - 0.0
23/07:30am 10.2 10.0 9.1 93 0.5 CALM 0 0 0 0 1020.4 - 0.0

Other Formats:

Comma delimited format used in spreadsheet applications
http://www.bom.gov.au/fwo/IDS60801/IDS60801.95654.axf

JavaScript Object Notation format (JSON) in row-major order
http://www.bom.gov.au/fwo/IDS60801/IDS60801.95654.json